Dugspur, Virginia
Current Conditions -  °F | °C
As of 5:35 AM on Sunday 26 Oct 2014 (Local Time) from KHLX Reporting Station
Scattered Clouds Scattered Clouds  
Wind Chill: 56°   Ceiling: Unl
Heat Index: 56°   Visibility: 10mi
Dew Point: 50°   Wind: 14mph
Humidity: 80%   Direction: 300°WNW
Pressure: 29.89"   Gusts: 18mph
Location:  36.82°N, 80.61°W
Report Text: KHLX 260935Z AUTO 30012G16KT 10SM SCT038 13/10 A2989 RMK AO2 T01320098
Loading
Personal Weather Stations






























Interactive Weather Map
Tropical Storm Tracking
New forecast layout! Learn more

10-Day Weather Forecast

Advertisements
Track Severe Weather on mobile